Time;durP1;ratioP1;P1;durP2;ratioP2;P2;SDS_P1;SDS_P2;PMS_P1;PMS_P2;Temp;Humidity;BMP_temperature;BMP_pressure;BME280_temperature;BME280_humidity;BME280_pressure;Samples;Min_cycle;Max_cycle;Signal;HPM_P1;HPM_P2
2022/09/02 00:02:16;;;;;;;4.85;0.80;;;17.90;90.40;;;;;;7354448;32;20295;-60
2022/09/02 00:06:18;;;;;;;3.95;0.70;;;17.90;90.50;;;;;;7363955;32;20103;-59
2022/09/02 00:10:20;;;;;;;4.15;0.70;;;17.90;90.60;;;;;;7352836;32;20130;-60
2022/09/02 00:14:28;;;;;;;2.00;0.90;;;17.90;90.50;;;;;;7358808;32;20404;-60
2022/09/02 00:18:31;;;;;;;5.07;0.90;;;17.90;90.90;;;;;;7356880;32;20236;-62
2022/09/02 00:22:32;;;;;;;2.90;0.70;;;17.90;90.70;;;;;;7363837;32;20202;-61
2022/09/02 00:26:34;;;;;;;5.10;0.90;;;17.90;91.20;;;;;;7354784;32;20261;-61
2022/09/02 00:30:37;;;;;;;4.55;1.08;;;17.80;91.60;;;;;;7352242;32;20560;-61
2022/09/02 00:34:38;;;;;;;1.20;0.70;;;17.80;91.60;;;;;;7357711;32;20785;-58
2022/09/02 00:38:40;;;;;;;2.65;0.70;;;17.70;91.70;;;;;;7355626;32;20104;-58
2022/09/02 00:42:42;;;;;;;3.50;1.00;;;17.70;92.20;;;;;;7359338;32;20225;-58
2022/09/02 00:46:44;;;;;;;3.90;0.90;;;17.70;92.40;;;;;;7352373;32;20507;-58
2022/09/02 00:50:46;;;;;;;4.70;0.77;;;17.70;92.30;;;;;;7361131;32;20266;-58
2022/09/02 00:54:52;;;;;;;2.47;0.90;;;17.70;92.50;;;;;;7364234;32;20180;-58
2022/09/02 00:58:55;;;;;;;4.85;0.70;;;17.90;92.60;;;;;;7354653;32;20135;-58
2022/09/02 01:03:01;;;;;;;4.40;0.60;;;17.70;92.60;;;;;;7359774;32;20133;-59
2022/09/02 01:07:04;;;;;;;1.65;0.80;;;17.80;93.00;;;;;;7351090;32;20099;-59
2022/09/02 01:11:06;;;;;;;3.50;1.12;;;17.70;93.00;;;;;;7360355;32;20291;-60
2022/09/02 01:15:09;;;;;;;2.78;1.00;;;17.80;93.30;;;;;;7354889;32;20226;-60
2022/09/02 01:19:41;;;;;;;2.72;0.90;;;17.80;93.10;;;;;;7349098;32;20198;-59
2022/09/02 01:23:44;;;;;;;3.35;0.60;;;17.90;93.20;;;;;;7351144;32;20114;-59
2022/09/02 01:27:47;;;;;;;3.03;0.77;;;17.90;94.10;;;;;;7357659;32;20604;-60
2022/09/02 01:31:49;;;;;;;3.10;0.80;;;17.90;93.80;;;;;;7354531;32;20251;-59
2022/09/02 01:35:52;;;;;;;2.62;1.00;;;17.90;94.40;;;;;;7351845;32;20235;-60
2022/09/02 01:39:56;;;;;;;1.50;0.80;;;17.90;94.20;;;;;;7360428;32;20233;-59
2022/09/02 01:43:57;;;;;;;2.65;0.80;;;17.90;94.30;;;;;;7355333;32;20149;-59
2022/09/02 01:47:59;;;;;;;3.17;1.00;;;17.90;95.00;;;;;;7357326;32;20111;-60
2022/09/02 01:52:01;;;;;;;3.03;0.85;;;17.90;94.10;;;;;;7351621;32;20535;-58
2022/09/02 01:56:03;;;;;;;1.00;0.77;;;17.90;95.80;;;;;;7353216;32;20107;-61
2022/09/02 02:00:25;;;;;;;1.12;0.50;;;17.90;95.20;;;;;;7351376;32;20107;-59
2022/09/02 02:04:27;;;;;;;1.27;0.90;;;17.90;94.30;;;;;;7354117;32;20194;-59
2022/09/02 02:08:29;;;;;;;2.83;1.12;;;17.80;95.50;;;;;;7357905;32;20122;-59
2022/09/02 02:12:31;;;;;;;3.25;0.93;;;17.80;95.20;;;;;;7351637;32;20160;-59
2022/09/02 02:16:32;;;;;;;2.97;0.90;;;17.80;95.30;;;;;;7354268;32;20197;-60
2022/09/02 02:20:35;;;;;;;4.82;0.75;;;17.80;95.20;;;;;;7351767;32;20107;-59
2022/09/02 02:24:38;;;;;;;3.22;0.80;;;17.80;96.00;;;;;;7354833;32;20262;-59
2022/09/02 02:28:43;;;;;;;7.07;0.90;;;17.70;95.70;;;;;;7351328;32;20273;-59
2022/09/02 02:32:46;;;;;;;1.95;0.77;;;17.70;95.60;;;;;;7359175;32;20141;-59
2022/09/02 02:36:47;;;;;;;2.72;0.70;;;17.60;96.30;;;;;;7343010;32;20663;-59
2022/09/02 02:40:56;;;;;;;2.33;1.00;;;17.60;96.60;;;;;;7357307;32;20194;-60
2022/09/02 02:44:58;;;;;;;1.52;0.75;;;17.50;97.30;;;;;;7352081;32;20721;-60
2022/09/02 02:49:00;;;;;;;1.77;0.80;;;17.40;96.70;;;;;;7355919;32;20122;-59
2022/09/02 02:53:02;;;;;;;2.92;0.70;;;17.30;99.00;;;;;;7348775;32;20137;-60
2022/09/02 02:57:04;;;;;;;3.20;1.12;;;17.30;98.70;;;;;;7353204;32;20128;-59
2022/09/02 03:01:06;;;;;;;1.80;0.80;;;17.20;98.50;;;;;;7350859;32;20282;-59
2022/09/02 03:05:10;;;;;;;4.57;0.90;;;17.20;98.90;;;;;;7355607;32;20222;-60
2022/09/02 03:09:12;;;;;;;2.25;0.90;;;17.20;99.90;;;;;;7347890;32;20377;-59
2022/09/02 03:13:14;;;;;;;3.05;0.77;;;17.10;99.90;;;;;;7349059;32;20578;-59
2022/09/02 03:17:16;;;;;;;4.18;0.90;;;17.10;99.90;;;;;;7349089;32;20201;-59
2022/09/02 03:21:18;;;;;;;4.03;0.95;;;17.00;99.90;;;;;;7350227;32;20176;-59
2022/09/02 03:25:20;;;;;;;2.33;0.90;;;17.00;99.90;;;;;;7358160;32;20129;-59
2022/09/02 03:29:22;;;;;;;2.08;0.90;;;17.00;99.90;;;;;;7351568;32;20091;-59
2022/09/02 03:33:24;;;;;;;3.67;0.80;;;16.90;99.90;;;;;;7352506;32;20191;-58
2022/09/02 03:37:26;;;;;;;3.62;0.82;;;16.80;99.90;;;;;;7349323;32;20119;-58
2022/09/02 03:41:28;;;;;;;1.65;0.70;;;16.70;99.90;;;;;;7352844;32;20258;-61
2022/09/02 03:45:31;;;;;;;2.78;0.80;;;16.70;99.90;;;;;;7349475;32;20228;-59
2022/09/02 03:49:34;;;;;;;3.25;0.90;;;16.60;99.90;;;;;;7353661;32;20211;-59
2022/09/02 03:53:36;;;;;;;2.03;0.90;;;16.60;99.90;;;;;;7353806;32;20122;-59
2022/09/02 03:57:38;;;;;;;2.53;0.90;;;16.50;99.90;;;;;;7352403;32;20222;-59
2022/09/02 04:01:40;;;;;;;1.73;0.90;;;16.40;99.90;;;;;;7357484;32;20130;-59
2022/09/02 04:05:54;;;;;;;4.12;1.10;;;16.30;99.90;;;;;;7355924;32;20152;-59
2022/09/02 04:09:55;;;;;;;1.65;0.85;;;16.10;99.90;;;;;;7352736;32;20631;-59
2022/09/02 04:13:58;;;;;;;4.68;0.93;;;15.90;99.90;;;;;;7356186;32;20636;-59
2022/09/02 04:17:59;;;;;;;2.20;0.90;;;15.70;99.90;;;;;;7347951;32;20619;-59
2022/09/02 04:22:01;;;;;;;4.65;0.98;;;15.60;99.90;;;;;;7363232;32;20671;-59
2022/09/02 04:26:06;;;;;;;3.90;1.15;;;15.50;99.90;;;;;;7353933;32;20153;-59
2022/09/02 04:30:08;;;;;;;2.85;0.93;;;15.30;99.90;;;;;;7352580;32;20106;-59
2022/09/02 04:34:10;;;;;;;2.97;0.80;;;15.30;99.90;;;;;;7364450;32;20290;-59
2022/09/02 04:38:12;;;;;;;2.78;0.88;;;15.30;99.90;;;;;;7357754;32;20317;-59
2022/09/02 04:42:14;;;;;;;1.92;0.93;;;15.30;99.90;;;;;;7352888;32;20266;-58
2022/09/02 04:46:16;;;;;;;5.30;1.33;;;15.30;99.90;;;;;;7355926;32;20144;-60
2022/09/02 04:50:18;;;;;;;3.33;1.00;;;15.20;99.90;;;;;;7351844;32;20184;-64
2022/09/02 04:54:19;;;;;;;12.05;6.80;;;15.10;99.90;;;;;;7356736;32;20534;-63
2022/09/02 04:58:21;;;;;;;3.78;1.00;;;15.00;99.90;;;;;;7366298;32;20804;-64
2022/09/02 05:02:23;;;;;;;3.05;1.20;;;14.90;99.90;;;;;;7359065;32;20174;-63
2022/09/02 05:06:26;;;;;;;2.10;1.00;;;14.80;99.90;;;;;;7359663;32;20198;-64
2022/09/02 05:10:29;;;;;;;4.07;1.20;;;14.80;99.90;;;;;;7353242;32;20192;-63
2022/09/02 05:14:31;;;;;;;9.80;3.28;;;14.80;99.90;;;;;;7357545;32;20133;-63
2022/09/02 05:18:33;;;;;;;4.00;1.30;;;14.70;99.90;;;;;;7361386;32;20127;-63
2022/09/02 05:22:36;;;;;;;5.78;0.98;;;14.70;99.90;;;;;;7357151;32;20129;-65
2022/09/02 05:26:43;;;;;;;6.80;1.42;;;14.70;99.90;;;;;;7359317;32;20257;-63
2022/09/02 05:30:45;;;;;;;6.43;1.10;;;14.70;99.90;;;;;;7356090;32;20438;-67
2022/09/02 05:34:47;;;;;;;9.27;1.30;;;14.60;99.90;;;;;;7365197;32;20125;-59
2022/09/02 05:38:50;;;;;;;6.00;1.20;;;14.60;99.90;;;;;;7370586;32;20624;-58
2022/09/02 05:42:52;;;;;;;2.72;1.20;;;14.60;99.90;;;;;;7359386;32;20181;-58
2022/09/02 05:46:54;;;;;;;8.75;1.58;;;14.70;99.90;;;;;;7358157;32;20187;-57
2022/09/02 05:50:56;;;;;;;1.98;1.40;;;14.70;99.90;;;;;;7354503;32;20512;-58
2022/09/02 05:54:59;;;;;;;3.40;1.15;;;14.90;99.90;;;;;;7363368;32;20164;-58
2022/09/02 05:59:01;;;;;;;2.47;1.15;;;15.10;99.90;;;;;;7362756;32;20183;-57
2022/09/02 06:03:03;;;;;;;3.40;1.10;;;15.40;99.90;;;;;;7361060;32;20107;-66
2022/09/02 06:07:05;;;;;;;3.85;1.20;;;15.80;99.90;;;;;;7357356;32;20249;-62
2022/09/02 06:11:09;;;;;;;2.33;1.42;;;16.10;99.90;;;;;;7352637;32;20851;-65
2022/09/02 06:15:11;;;;;;;8.93;1.60;;;16.60;99.90;;;;;;7356587;32;20130;-62
2022/09/02 06:19:13;;;;;;;5.25;1.10;;;16.90;99.90;;;;;;7358505;32;20230;-63
2022/09/02 06:23:20;;;;;;;1.75;1.10;;;17.30;99.90;;;;;;7357841;32;20104;-65
2022/09/02 06:27:22;;;;;;;1.77;0.90;;;17.70;99.90;;;;;;7353589;32;20456;-64
2022/09/02 06:31:24;;;;;;;5.62;1.00;;;18.00;99.90;;;;;;7361903;32;20194;-67
2022/09/02 06:35:26;;;;;;;1.27;0.90;;;18.30;99.90;;;;;;7356691;32;20232;-64
2022/09/02 06:39:28;;;;;;;2.37;1.12;;;18.50;99.90;;;;;;7368855;32;20285;-66
2022/09/02 06:43:30;;;;;;;2.60;1.02;;;18.70;99.90;;;;;;7355917;32;20115;-63
2022/09/02 06:47:44;;;;;;;5.28;1.40;;;18.90;99.90;;;;;;7351695;32;20528;-62
2022/09/02 06:51:48;;;;;;;4.90;1.37;;;19.10;99.90;;;;;;7357408;32;20657;-62
2022/09/02 06:55:50;;;;;;;2.28;1.10;;;19.20;99.90;;;;;;7352396;32;20476;-64
2022/09/02 06:59:52;;;;;;;5.22;1.17;;;19.30;99.90;;;;;;7363671;32;20135;-67
2022/09/02 07:08:23;;;;;;;3.90;1.20;;;19.40;99.90;;;;;;7362128;32;20130;-64
2022/09/02 07:12:26;;;;;;;2.70;1.12;;;19.50;99.90;;;;;;7355375;32;20178;-64
2022/09/02 07:16:35;;;;;;;6.93;1.55;;;19.50;99.90;;;;;;7359929;32;20246;-65
2022/09/02 07:20:37;;;;;;;2.78;1.10;;;19.50;99.90;;;;;;7362124;32;20199;-64
2022/09/02 07:24:39;;;;;;;4.05;1.30;;;19.40;99.90;;;;;;7356007;32;20123;-63
2022/09/02 07:28:42;;;;;;;3.15;1.12;;;19.40;99.90;;;;;;7352633;32;20175;-65
2022/09/02 07:32:43;;;;;;;3.22;1.10;;;19.30;99.90;;;;;;7352747;32;21278;-64
2022/09/02 07:36:47;;;;;;;3.92;1.30;;;19.30;99.90;;;;;;7351090;32;20112;-65
2022/09/02 07:40:49;;;;;;;6.50;1.20;;;19.40;99.90;;;;;;7355091;32;20182;-63
2022/09/02 07:44:57;;;;;;;3.53;1.23;;;19.50;99.90;;;;;;7361813;32;20524;-63
2022/09/02 07:49:00;;;;;;;4.15;1.10;;;19.70;99.90;;;;;;7357338;32;20696;-64
2022/09/02 07:53:05;;;;;;;4.32;1.05;;;19.80;99.90;;;;;;7354894;32;20498;-64
2022/09/02 07:57:07;;;;;;;5.85;1.27;;;20.10;99.90;;;;;;7355088;32;20308;-63
2022/09/02 08:01:10;;;;;;;4.20;1.40;;;20.20;99.90;;;;;;7363018;32;20138;-62
2022/09/02 08:05:13;;;;;;;3.40;1.10;;;20.30;99.90;;;;;;7361256;32;20112;-63
2022/09/02 08:09:14;;;;;;;4.40;1.40;;;20.60;99.90;;;;;;7357588;32;20129;-63
2022/09/02 08:13:16;;;;;;;3.55;1.20;;;20.60;99.90;;;;;;7357197;32;20115;-64
2022/09/02 08:17:19;;;;;;;3.47;1.40;;;20.70;99.90;;;;;;7359114;32;20256;-64
2022/09/02 08:21:20;;;;;;;3.05;1.30;;;20.80;99.90;;;;;;7364759;32;20740;-63
2022/09/02 08:25:22;;;;;;;2.60;1.33;;;20.60;99.90;;;;;;7363941;32;20553;-64
2022/09/02 08:29:24;;;;;;;5.37;1.40;;;20.50;99.90;;;;;;7362228;32;20438;-62
2022/09/02 08:33:26;;;;;;;3.45;0.90;;;20.50;99.90;;;;;;7365069;32;20453;-64
2022/09/02 08:37:30;;;;;;;5.50;1.50;;;20.90;99.90;;;;;;7356238;32;20194;-63
2022/09/02 08:41:44;;;;;;;1.80;1.15;;;21.20;99.90;;;;;;7362630;32;20178;-63
2022/09/02 08:45:46;;;;;;;4.57;1.17;;;21.50;99.90;;;;;;7355076;32;20481;-64
2022/09/02 08:49:53;;;;;;;1.80;1.00;;;21.90;99.90;;;;;;7352610;32;20276;-66
2022/09/02 08:54:06;;;;;;;3.70;1.00;;;22.30;99.90;;;;;;7362752;32;20626;-63
2022/09/02 08:58:09;;;;;;;3.47;1.20;;;22.60;99.90;;;;;;7357796;32;20331;-63
2022/09/02 09:02:20;;;;;;;4.18;1.80;;;23.00;99.90;;;;;;7356556;32;20129;-63
2022/09/02 09:06:37;;;;;;;3.22;1.17;;;23.10;98.20;;;;;;7357237;32;20107;-64
2022/09/02 09:11:13;;;;;;;3.28;0.90;;;23.20;97.80;;;;;;7350957;32;20307;-63
2022/09/02 09:15:24;;;;;;;3.78;0.73;;;23.50;97.70;;;;;;7363936;32;20192;-63
2022/09/02 09:19:36;;;;;;;2.55;1.00;;;23.90;95.70;;;;;;7355718;32;20129;-64
2022/09/02 09:23:39;;;;;;;2.80;1.00;;;24.40;93.90;;;;;;7361868;32;20666;-64
2022/09/02 09:27:41;;;;;;;4.43;1.10;;;24.40;92.90;;;;;;7354500;32;20228;-63
2022/09/02 09:31:46;;;;;;;3.90;1.00;;;24.30;93.40;;;;;;7358849;32;20172;-65
2022/09/02 09:35:50;;;;;;;3.78;1.27;;;24.90;91.20;;;;;;7357853;32;20111;-63
2022/09/02 09:39:52;;;;;;;3.28;1.10;;;25.70;90.10;;;;;;7355214;32;20222;-64
2022/09/02 09:43:54;;;;;;;2.25;1.08;;;26.30;86.90;;;;;;7355806;32;20205;-63
2022/09/02 09:48:18;;;;;;;3.83;1.00;;;27.10;82.10;;;;;;7355947;32;20178;-63
2022/09/02 09:52:24;;;;;;;1.85;0.80;;;28.20;80.00;;;;;;7363296;32;20134;-64
2022/09/02 09:56:29;;;;;;;2.60;0.90;;;28.70;75.20;;;;;;7356208;32;20681;-68
2022/09/02 10:00:32;;;;;;;2.40;0.93;;;27.50;71.40;;;;;;7354578;32;20127;-64
2022/09/02 10:04:33;;;;;;;3.72;0.90;;;28.50;69.30;;;;;;7358294;32;20107;-63
2022/09/02 10:08:54;;;;;;;2.65;0.90;;;29.20;63.80;;;;;;7353780;32;21024;-66
2022/09/02 10:13:00;;;;;;;2.03;0.80;;;28.90;63.50;;;;;;7358384;32;20224;-64
2022/09/02 10:17:10;;;;;;;3.77;0.90;;;28.70;62.40;;;;;;7356897;32;20514;-63
2022/09/02 10:22:03;;;;;;;2.45;0.73;;;29.40;58.10;;;;;;7352784;32;21005;-66
2022/09/02 10:26:35;;;;;;;2.08;0.80;;;29.50;57.80;;;;;;7305679;32;20243;-65
2022/09/02 10:31:07;;;;;;;4.60;0.93;;;30.00;56.90;;;;;;7351689;32;20134;-63
2022/09/02 10:35:31;;;;;;;2.30;0.90;;;29.20;55.80;;;;;;7359896;32;20300;-64
2022/09/02 10:40:14;;;;;;;1.77;1.12;;;28.60;55.30;;;;;;7357736;32;20218;-63
2022/09/02 10:44:43;;;;;;;2.53;0.80;;;28.30;56.70;;;;;;7356062;32;20107;-62
2022/09/02 10:49:00;;;;;;;3.00;0.90;;;28.00;55.30;;;;;;7355916;32;20107;-63
2022/09/02 10:53:31;;;;;;;1.73;0.90;;;26.60;56.00;;;;;;7357258;32;20107;-63
2022/09/02 10:57:42;;;;;;;1.87;0.80;;;26.20;56.90;;;;;;7357332;32;20286;-64
2022/09/02 11:01:56;;;;;;;6.43;0.90;;;25.80;58.30;;;;;;7360336;32;20180;-66
2022/09/02 11:06:09;;;;;;;2.53;0.80;;;25.70;58.20;;;;;;7356267;32;20225;-64
2022/09/02 11:10:19;;;;;;;2.47;0.77;;;25.70;61.10;;;;;;7352527;32;20276;-65
2022/09/02 11:14:23;;;;;;;1.67;0.60;;;26.00;57.50;;;;;;7355688;32;20130;-64
2022/09/02 11:18:34;;;;;;;2.55;0.88;;;26.60;57.20;;;;;;7350214;32;20099;-65
2022/09/02 11:22:59;;;;;;;1.17;0.80;;;27.00;56.50;;;;;;7356759;32;20710;-64
2022/09/02 11:27:30;;;;;;;3.72;0.90;;;27.40;55.50;;;;;;7352853;32;20111;-64
2022/09/02 11:32:06;;;;;;;2.50;0.80;;;27.40;55.10;;;;;;7350656;32;20120;-66
2022/09/02 11:36:08;;;;;;;3.85;0.90;;;26.70;56.40;;;;;;7357179;32;20513;-63
2022/09/02 11:41:18;;;;;;;4.18;0.88;;;26.40;57.70;;;;;;7356190;32;20183;-65
2022/09/02 11:46:14;;;;;;;2.08;0.80;;;27.20;57.70;;;;;;7243690;32;20318;-66
2022/09/02 11:50:40;;;;;;;2.03;0.77;;;27.30;55.60;;;;;;7322483;32;20110;-65
2022/09/02 11:54:46;;;;;;;2.47;0.75;;;27.40;55.90;;;;;;7353407;32;20118;-66
2022/09/02 11:58:51;;;;;;;1.90;0.98;;;27.40;54.90;;;;;;7356994;32;20135;-64
2022/09/02 12:03:04;;;;;;;4.50;1.00;;;27.90;55.00;;;;;;7354790;32;20620;-56
2022/09/02 12:07:26;;;;;;;2.25;0.75;;;28.20;52.80;;;;;;7356987;32;20241;-55
2022/09/02 12:11:40;;;;;;;5.68;0.75;;;27.90;53.40;;;;;;7364625;32;20810;-57
2022/09/02 12:15:44;;;;;;;2.30;0.77;;;28.20;53.40;;;;;;7359290;32;20200;-55
2022/09/02 12:19:47;;;;;;;5.82;1.00;;;28.70;53.90;;;;;;7358644;32;20673;-55
2022/09/02 12:23:55;;;;;;;1.48;0.70;;;28.60;51.90;;;;;;7361315;32;20433;-55
2022/09/02 12:28:23;;;;;;;2.67;0.75;;;28.30;52.30;;;;;;7358506;32;20131;-54
2022/09/02 12:33:03;;;;;;;2.53;0.80;;;28.20;53.60;;;;;;7353121;32;20229;-55
2022/09/02 12:37:05;;;;;;;2.25;0.90;;;28.20;52.50;;;;;;7344465;32;20115;-64
2022/09/02 12:41:25;;;;;;;1.45;0.70;;;28.00;53.80;;;;;;7361155;32;20178;-63
2022/09/02 12:45:30;;;;;;;2.33;0.75;;;28.00;53.20;;;;;;7357847;32;20680;-62
2022/09/02 12:50:01;;;;;;;2.25;0.90;;;28.50;53.30;;;;;;7358817;32;20107;-63
2022/09/02 12:54:05;;;;;;;1.77;0.80;;;28.30;51.80;;;;;;7361838;32;21785;-63
2022/09/02 12:58:15;;;;;;;5.90;1.05;;;28.30;52.30;;;;;;7357907;32;20106;-62
2022/09/02 13:02:41;;;;;;;1.35;0.70;;;28.30;52.50;;;;;;7353554;32;20174;-67
2022/09/02 13:06:52;;;;;;;1.83;1.00;;;28.50;51.60;;;;;;7360143;32;20815;-65
2022/09/02 13:11:15;;;;;;;1.60;0.82;;;28.50;52.60;;;;;;7358150;32;20122;-63
2022/09/02 13:15:34;;;;;;;1.70;0.70;;;28.50;51.50;;;;;;7330128;32;20225;-63
2022/09/02 13:20:04;;;;;;;2.12;0.90;;;28.50;51.60;;;;;;7357622;32;20129;-62
2022/09/02 13:24:28;;;;;;;2.37;0.80;;;28.30;52.00;;;;;;7352562;32;20103;-64
2022/09/02 13:28:58;;;;;;;1.40;0.90;;;28.00;50.20;;;;;;7353283;32;20099;-63
2022/09/02 13:33:13;;;;;;;2.15;0.95;;;27.90;50.90;;;;;;7359249;32;20206;-62
2022/09/02 13:37:37;;;;;;;1.40;0.68;;;27.70;50.70;;;;;;7358744;32;20174;-63
2022/09/02 13:41:39;;;;;;;2.53;0.80;;;27.60;51.10;;;;;;7357434;32;20190;-65
2022/09/02 13:45:41;;;;;;;1.58;0.90;;;27.70;51.80;;;;;;7352293;32;20107;-64
2022/09/02 13:49:46;;;;;;;0.73;0.52;;;28.00;52.50;;;;;;7357185;32;20167;-65
2022/09/02 13:53:49;;;;;;;3.00;0.80;;;28.20;51.00;;;;;;7357412;32;20178;-64
2022/09/02 13:58:31;;;;;;;1.77;0.75;;;28.30;50.30;;;;;;7357926;32;20194;-64
2022/09/02 14:02:35;;;;;;;1.25;0.57;;;28.50;51.00;;;;;;7352997;32;20226;-64
2022/09/02 14:06:40;;;;;;;3.45;0.85;;;28.50;48.60;;;;;;7351884;32;20733;-64
2022/09/02 14:10:43;;;;;;;2.12;0.65;;;28.60;50.10;;;;;;7353137;32;20170;-65
2022/09/02 14:14:53;;;;;;;2.22;0.68;;;28.30;49.70;;;;;;7362367;32;20166;-65
2022/09/02 14:19:16;;;;;;;4.40;0.90;;;28.30;50.10;;;;;;7351056;32;20220;-66
2022/09/02 14:23:18;;;;;;;1.55;0.70;;;27.90;48.60;;;;;;7349889;32;20309;-65
2022/09/02 14:27:21;;;;;;;1.92;0.80;;;27.70;48.20;;;;;;7349765;32;20200;-65
2022/09/02 14:31:46;;;;;;;1.27;0.70;;;27.00;50.30;;;;;;7355255;32;20147;-65
2022/09/02 14:36:01;;;;;;;2.15;0.70;;;27.30;51.30;;;;;;7358477;32;20099;-68
2022/09/02 14:40:10;;;;;;;1.73;0.70;;;27.70;50.20;;;;;;7362876;32;20559;-65
2022/09/02 14:44:33;;;;;;;1.67;0.70;;;27.40;50.30;;;;;;7348906;32;20289;-66
2022/09/02 14:48:37;;;;;;;2.85;0.70;;;27.30;49.70;;;;;;7356299;32;20131;-65
2022/09/02 14:52:45;;;;;;;2.53;0.68;;;27.30;49.50;;;;;;7355667;32;20277;-67
2022/09/02 14:56:52;;;;;;;2.90;0.70;;;27.40;50.20;;;;;;7363133;32;20576;-65
2022/09/02 15:00:56;;;;;;;1.42;0.70;;;27.10;50.30;;;;;;7360680;32;20174;-65
2022/09/02 15:05:05;;;;;;;2.33;0.90;;;27.00;50.30;;;;;;7371443;32;20127;-67
2022/09/02 15:09:07;;;;;;;4.15;1.00;;;26.70;51.50;;;;;;7357490;32;20111;-65
2022/09/02 15:13:23;;;;;;;2.78;0.70;;;26.40;51.40;;;;;;7363375;32;20196;-67
2022/09/02 15:17:27;;;;;;;2.67;0.80;;;26.20;52.50;;;;;;7360381;32;20182;-67
2022/09/02 15:21:28;;;;;;;4.20;0.80;;;26.20;51.70;;;;;;7350281;32;20441;-66
2022/09/02 15:25:30;;;;;;;3.25;0.88;;;26.10;51.30;;;;;;7365480;32;20755;-66
2022/09/02 15:29:32;;;;;;;7.37;0.90;;;25.80;51.50;;;;;;7358372;32;20178;-65
2022/09/02 15:33:34;;;;;;;2.87;0.80;;;26.00;52.80;;;;;;7358984;32;20163;-57
2022/09/02 15:37:36;;;;;;;1.58;0.82;;;26.00;52.80;;;;;;7361598;32;20103;-55
2022/09/02 15:41:42;;;;;;;2.83;0.80;;;25.70;52.60;;;;;;7361974;32;20156;-55
2022/09/02 15:45:48;;;;;;;3.25;1.00;;;25.60;52.40;;;;;;7362730;32;20183;-56
2022/09/02 15:49:51;;;;;;;2.27;0.70;;;25.50;52.50;;;;;;7362216;32;20198;-55
2022/09/02 15:53:55;;;;;;;1.52;0.50;;;25.50;54.20;;;;;;7355289;32;20125;-57
2022/09/02 15:57:57;;;;;;;3.80;0.70;;;25.60;54.10;;;;;;7364390;32;20096;-56
2022/09/02 16:01:59;;;;;;;0.80;0.70;;;25.60;53.50;;;;;;7361116;32;20125;-57
2022/09/02 16:06:02;;;;;;;2.15;0.80;;;25.50;53.70;;;;;;7363823;32;20282;-68
2022/09/02 16:10:04;;;;;;;1.65;0.70;;;25.50;53.30;;;;;;7353497;32;20590;-63
2022/09/02 16:14:06;;;;;;;2.80;0.85;;;25.30;54.50;;;;;;7360199;32;20614;-64
2022/09/02 16:18:07;;;;;;;1.00;0.77;;;25.10;53.00;;;;;;7362147;32;20593;-63
2022/09/02 16:22:09;;;;;;;2.42;0.80;;;25.20;53.30;;;;;;7359508;32;20216;-63
2022/09/02 16:26:20;;;;;;;6.65;1.00;;;25.20;54.80;;;;;;7360363;32;20217;-65
2022/09/02 16:30:22;;;;;;;3.12;0.80;;;25.10;54.30;;;;;;7366255;32;20205;-62
2022/09/02 16:34:24;;;;;;;2.00;0.77;;;24.90;54.30;;;;;;7361002;32;20187;-64
2022/09/02 16:38:26;;;;;;;1.02;0.80;;;24.60;54.80;;;;;;7366853;32;20612;-63
2022/09/02 16:42:28;;;;;;;2.90;1.00;;;24.40;55.80;;;;;;7370314;32;20209;-63
2022/09/02 16:46:31;;;;;;;3.50;0.77;;;24.30;55.80;;;;;;7362131;32;20212;-63
2022/09/02 16:50:33;;;;;;;7.10;0.98;;;24.10;56.10;;;;;;7365905;32;20186;-63
2022/09/02 16:54:34;;;;;;;1.87;0.82;;;24.10;56.40;;;;;;7367441;32;20248;-63
2022/09/02 16:58:41;;;;;;;3.65;0.85;;;24.00;56.60;;;;;;7355320;32;20166;-62
2022/09/02 17:02:43;;;;;;;3.92;0.93;;;23.80;57.20;;;;;;7362167;32;20126;-64
2022/09/02 17:06:44;;;;;;;5.78;1.10;;;23.70;57.70;;;;;;7363922;32;20137;-66
2022/09/02 17:10:47;;;;;;;3.17;1.02;;;23.50;57.60;;;;;;7363636;32;20111;-62
2022/09/02 17:14:48;;;;;;;2.25;0.93;;;23.40;57.80;;;;;;7367350;32;20555;-63
2022/09/02 17:18:50;;;;;;;4.12;1.05;;;23.30;57.90;;;;;;7356327;32;20178;-54
2022/09/02 17:22:54;;;;;;;6.55;1.50;;;23.20;58.90;;;;;;7366256;32;20310;-54
2022/09/02 17:26:56;;;;;;;1.83;0.90;;;23.20;59.00;;;;;;7363071;32;20169;-57
2022/09/02 17:30:58;;;;;;;5.10;1.17;;;23.10;58.60;;;;;;7365960;32;20237;-54
2022/09/02 17:35:00;;;;;;;3.00;1.25;;;23.10;58.80;;;;;;7365738;32;20421;-55
2022/09/02 17:39:11;;;;;;;6.37;1.23;;;23.00;59.10;;;;;;7364690;32;20178;-54
2022/09/02 17:43:14;;;;;;;4.87;1.12;;;22.90;59.70;;;;;;7356439;32;20110;-60
2022/09/02 17:47:19;;;;;;;3.17;1.00;;;22.80;59.50;;;;;;7360045;32;20099;-64
2022/09/02 17:51:20;;;;;;;3.15;0.90;;;22.80;59.60;;;;;;7358070;32;20317;-64
2022/09/02 17:55:22;;;;;;;5.65;1.02;;;22.60;60.00;;;;;;7367012;32;20129;-66
2022/09/02 17:59:43;;;;;;;5.80;1.10;;;22.50;60.50;;;;;;7351462;32;20276;-65
2022/09/02 18:04:00;;;;;;;3.40;0.93;;;22.50;60.90;;;;;;7356164;32;20591;-65
2022/09/02 18:08:28;;;;;;;5.07;1.15;;;22.40;61.10;;;;;;7352230;32;20249;-62
2022/09/02 18:12:29;;;;;;;5.12;1.00;;;22.20;61.50;;;;;;7353556;32;20123;-62
2022/09/02 18:17:12;;;;;;;1.90;1.02;;;22.10;61.90;;;;;;7354995;32;20205;-65
2022/09/02 18:21:34;;;;;;;5.30;1.08;;;22.00;61.80;;;;;;7353492;32;20463;-65
2022/09/02 18:26:20;;;;;;;2.58;1.10;;;21.90;62.70;;;;;;7362695;32;20536;-67
2022/09/02 18:30:44;;;;;;;2.30;1.05;;;21.70;63.90;;;;;;7343684;32;21438;-61
2022/09/02 18:35:20;;;;;;;6.40;1.12;;;21.50;63.80;;;;;;7350229;32;20440;-61
2022/09/02 18:39:40;;;;;;;9.32;1.35;;;21.40;64.90;;;;;;7352774;32;20227;-61
2022/09/02 18:44:27;;;;;;;6.07;1.60;;;21.30;64.80;;;;;;7355680;32;20126;-61
2022/09/02 18:48:35;;;;;;;3.33;1.20;;;21.10;66.40;;;;;;7350946;32;20777;-60
2022/09/02 18:52:37;;;;;;;6.68;1.30;;;21.00;66.10;;;;;;7357680;32;20167;-61
2022/09/02 18:56:47;;;;;;;4.57;1.33;;;20.90;66.80;;;;;;7358868;32;20148;-61
2022/09/02 19:00:53;;;;;;;3.05;1.27;;;20.80;67.20;;;;;;7353791;32;20106;-60
2022/09/02 19:05:00;;;;;;;5.05;1.20;;;20.60;70.10;;;;;;7356017;32;20873;-60
2022/09/02 19:09:25;;;;;;;4.37;1.90;;;20.50;68.80;;;;;;7351744;32;20303;-61
2022/09/02 19:13:28;;;;;;;2.25;1.50;;;20.40;69.30;;;;;;7357373;32;20190;-62
2022/09/02 19:17:30;;;;;;;3.17;1.40;;;20.30;71.40;;;;;;7352894;32;20283;-61
2022/09/02 19:22:10;;;;;;;8.25;1.58;;;20.20;73.10;;;;;;7354949;32;21601;-62
2022/09/02 19:26:12;;;;;;;6.43;1.48;;;20.00;75.50;;;;;;7341931;32;20230;-61
2022/09/02 19:30:21;;;;;;;4.87;1.58;;;19.80;74.90;;;;;;7349181;32;20167;-61
2022/09/02 19:34:29;;;;;;;7.75;1.20;;;19.80;75.40;;;;;;7351537;32;20219;-60
2022/09/02 19:38:31;;;;;;;5.57;1.73;;;19.70;78.90;;;;;;7349175;32;20186;-61
2022/09/02 19:42:33;;;;;;;2.72;1.20;;;19.60;78.40;;;;;;7349755;32;20202;-60
2022/09/02 19:46:34;;;;;;;5.00;1.20;;;19.50;79.20;;;;;;7357979;32;20099;-61
2022/09/02 19:50:56;;;;;;;6.47;1.23;;;19.50;78.40;;;;;;7353205;32;20783;-60
2022/09/02 19:54:58;;;;;;;7.47;1.65;;;19.30;80.00;;;;;;7349907;32;20119;-60
2022/09/02 19:59:09;;;;;;;2.45;1.30;;;19.20;83.10;;;;;;7358466;32;20290;-59
2022/09/02 20:03:11;;;;;;;5.32;1.15;;;19.00;83.50;;;;;;7362151;32;20666;-60
2022/09/02 20:07:14;;;;;;;9.70;1.58;;;19.00;80.20;;;;;;7356691;32;20212;-60
2022/09/02 20:11:16;;;;;;;5.00;1.50;;;19.00;81.20;;;;;;7365426;32;20223;-61
2022/09/02 20:15:18;;;;;;;5.75;1.40;;;19.00;81.80;;;;;;7359625;32;20552;-58
2022/09/02 20:19:20;;;;;;;2.10;1.25;;;18.90;83.30;;;;;;7353605;32;20612;-60
2022/09/02 20:23:24;;;;;;;7.35;1.58;;;18.80;85.20;;;;;;7353206;32;20131;-61
2022/09/02 20:27:48;;;;;;;2.08;1.20;;;18.80;83.40;;;;;;7360183;32;20191;-61
2022/09/02 20:32:18;;;;;;;4.45;1.20;;;18.70;84.00;;;;;;7353603;32;20274;-61
2022/09/02 20:36:36;;;;;;;4.75;1.10;;;18.70;84.10;;;;;;7359596;32;20700;-60
2022/09/02 20:40:51;;;;;;;5.30;1.10;;;18.70;84.60;;;;;;7358608;32;20178;-60
2022/09/02 20:45:16;;;;;;;5.55;1.42;;;18.50;86.90;;;;;;7365116;32;20630;-59
2022/09/02 20:49:59;;;;;;;2.95;1.35;;;18.50;85.00;;;;;;7357405;32;20466;-59
2022/09/02 20:54:10;;;;;;;3.83;1.08;;;18.40;88.30;;;;;;7355944;32;20202;-60
2022/09/02 20:58:27;;;;;;;4.35;1.17;;;18.40;83.00;;;;;;7351371;32;20121;-58
2022/09/02 21:02:36;;;;;;;4.17;1.30;;;18.40;83.70;;;;;;7355626;32;20758;-59
2022/09/02 21:06:44;;;;;;;3.75;1.45;;;18.40;86.70;;;;;;7361502;32;20462;-58
2022/09/02 21:10:50;;;;;;;4.12;1.05;;;18.20;87.60;;;;;;7355179;32;20597;-58
2022/09/02 21:15:02;;;;;;;3.30;1.00;;;18.20;84.20;;;;;;7360992;32;20107;-59
2022/09/02 21:19:04;;;;;;;2.17;1.15;;;18.20;85.40;;;;;;7359911;32;20171;-59
2022/09/02 21:23:39;;;;;;;3.87;1.00;;;18.20;84.70;;;;;;7356312;32;20122;-59
2022/09/02 21:27:44;;;;;;;3.00;1.02;;;18.20;83.20;;;;;;7346096;32;20300;-59
2022/09/02 21:32:04;;;;;;;3.55;1.12;;;18.20;82.20;;;;;;7357517;32;20242;-59
2022/09/02 21:36:06;;;;;;;3.10;1.20;;;18.30;80.60;;;;;;7357916;32;20183;-60
2022/09/02 21:40:15;;;;;;;2.05;1.08;;;18.40;82.00;;;;;;7360300;32;20494;-59